Flight Track Log - Related Links

Times and Time Zones

All times are in EDT time to prevent confusion due to time zone crossing. See the AWI3970 flight status page for this flight to view local times or setup timezone preferences in your user account.

Time Position Orientation Groundspeed Altitude Reporting Facility
EDT Latitude Longitude Course Direction KTS MPH feet Rate Location/Type
Sun 11:15:19 PM 39.8667 -75.2167 North 146 168 900  Level Philadelphia TRACON
Sun 11:16:19 PM 39.8167 -75.2000 166° South 191 220 2,300 1,750 Climbing Philadelphia TRACON
Sun 11:17:00 PM 39.8158 -74.8625 105° East  Level FlightAware Approximate
Sun 11:17:19 PM 39.7833 -75.1333 123° Southeast 255 293 4,400  Level Philadelphia TRACON
Sun 11:18:00 PM 39.7908 -74.7373 105° East  Level FlightAware Approximate
Sun 11:18:19 PM 39.7833 -75.0500 90° East 286 329 6,700  Level Philadelphia TRACON
Sun 11:19:00 PM 39.8387 -74.6447 37° Northeast  Level FlightAware Approximate
Sun 11:20:00 PM 39.9177 -74.5667 North  Level FlightAware Approximate
Sun 11:20:28 PM 39.7894 -74.8286 88° East 295 339 10,600  Level New York Center
Sun 11:21:29 PM 39.8125 -74.7031 77° East 319 367 11,900 1,361 Climbing New York Center
Sun 11:22:27 PM 39.8922 -74.6208 38° Northeast 318 366 13,300 1,600 Climbing New York Center
Sun 11:23:29 PM 39.9764 -74.5389 37° Northeast 339 390 15,100 1,574 Climbing New York Center
Sun 11:24:29 PM 40.0442 -74.4394 48° Northeast 363 418 16,500 1,424 Climbing New York Center
Sun 11:25:27 PM 40.1000 -74.3150 60° Northeast 358 412 17,900 1,008 Climbing New York Center
Sun 11:26:28 PM 40.1956 -74.2519 27° Northeast 368 423 18,500 650 Climbing New York Center
Sun 11:27:27 PM 40.2892 -74.1886 27° Northeast 386 444 19,200 769 Climbing New York Center
Sun 11:29:43 PM 40.5175 -74.0397 26° Northeast 415 478 21,000 735 Climbing Boston Center
Sun 11:30:43 PM 40.6478 -73.9608 25° Northeast 420 483 21,600 591 Climbing Boston Center
Sun 11:31:55 PM 40.7592 -73.8894 26° Northeast 432 497 22,300 636 Climbing Boston Center
Sun 11:32:55 PM 40.8753 -73.7686 38° Northeast 437 503 23,000 650 Climbing Boston Center
Sun 11:33:55 PM 40.9783 -73.6883 30° Northeast 437 503 23,600 500 Climbing Boston Center
Sun 11:34:55 PM 41.1033 -73.6961 357° North 408 470 24,000 200 Climbing Boston Center
Sun 11:35:55 PM 41.2283 -73.7042 357° North 424 488 24,000  Level Boston Center
Sun 11:36:55 PM 41.3533 -73.7122 357° North 437 503 24,000 -450 Level Boston Center
Sun 11:37:55 PM 41.4700 -73.7200 357° North 437 503 23,100 -1,200 Descending Boston Center
Sun 11:38:55 PM 41.5886 -73.7253 358° North 437 503 21,600 -1,550 Descending Boston Center
Sun 11:39:55 PM 41.6989 -73.7331 357° North 418 481 20,000 -1,600 Descending Boston Center
Sun 11:40:55 PM 41.8031 -73.7406 357° North 387 445 18,400 -1,636 Descending Boston Center
Sun 11:42:07 PM 41.9322 -73.7461 358° North 377 434 16,400 -1,642 Descending Boston Center
Sun 11:42:41 PM 41.9925 -73.7558 353° North 388 447 15,500 -1,579 Descending Boston Center
Sun 11:43:42 PM 42.0967 -73.7636 357° North 383 441 13,900 -1,587 Descending Boston Center
Sun 11:44:42 PM 42.2008 -73.7714 357° North 369 425 12,300 -1,785 Descending Boston Center
Sun 11:45:43 PM 42.2925 -73.7761 358° North 327 376 10,300 -1,967 Descending Boston Center
Sun 11:46:44 PM 42.3819 -73.7808 358° North 297 342 8,300 -1,938 Descending Boston Center
Sun 11:47:19 PM 42.4278 -73.7817 359° North 294 338 7,200 -2,084 Descending Boston Center
Sun 11:48:19 PM 42.5050 -73.7892 356° North 283 326 5,000 -2,000 Descending Boston Center
Sun 11:49:19 PM 42.5800 -73.7964 356° North 277 319 3,200 -1,300 Descending Boston Center
Sun 11:50:19 PM 42.6444 -73.8033 355° North 253 291 2,400 -500 Descending Boston Center
Sun 11:51:19 PM 42.7069 -73.8133 353° North 244 281 2,200 -200 Descending Boston Center

Login

Don't have an account? Register now (free) for customized features, flight alerts, and more!